createdAt,value
2018-07-31T00:00:27.875Z,0.00
2018-07-31T00:01:27.867Z,0.00
2018-07-31T00:02:27.849Z,0.00
2018-07-31T00:03:27.934Z,0.00
2018-07-31T00:04:27.827Z,0.00
2018-07-31T00:05:27.824Z,0.00
2018-07-31T00:06:27.804Z,0.00
2018-07-31T00:07:27.803Z,0.00
2018-07-31T00:08:27.782Z,0.00
2018-07-31T00:09:27.802Z,0.00
2018-07-31T00:10:27.806Z,0.00
2018-07-31T00:11:27.754Z,0.00
2018-07-31T00:12:27.740Z,0.00
2018-07-31T00:13:27.731Z,0.00
2018-07-31T00:14:27.747Z,0.00
2018-07-31T00:15:27.722Z,0.00
2018-07-31T00:16:27.692Z,0.00
2018-07-31T00:17:27.688Z,0.00
2018-07-31T00:18:27.672Z,0.00
2018-07-31T00:19:27.668Z,0.00
2018-07-31T00:20:27.676Z,0.00
2018-07-31T00:21:27.641Z,0.00
2018-07-31T00:22:27.628Z,0.00
2018-07-31T00:23:27.619Z,0.00
2018-07-31T00:24:27.604Z,0.00
2018-07-31T00:25:27.626Z,0.00
2018-07-31T00:26:27.578Z,0.00
2018-07-31T00:27:27.577Z,0.00
2018-07-31T00:28:27.555Z,0.00
2018-07-31T00:29:27.554Z,0.00
2018-07-31T00:30:27.536Z,0.00
2018-07-31T00:31:27.552Z,0.00
2018-07-31T00:32:27.520Z,0.00
2018-07-31T00:33:27.499Z,0.00
2018-07-31T00:34:27.493Z,0.00
2018-07-31T00:35:27.485Z,0.00
2018-07-31T00:36:27.498Z,0.00
2018-07-31T00:37:27.462Z,0.00
2018-07-31T00:38:27.443Z,0.00
2018-07-31T00:39:27.442Z,0.00
2018-07-31T00:40:27.427Z,0.00
2018-07-31T00:41:27.419Z,0.00
2018-07-31T00:42:27.433Z,0.00
2018-07-31T00:43:27.394Z,0.00
2018-07-31T00:44:27.379Z,0.00
2018-07-31T00:45:27.372Z,0.00
2018-07-31T00:46:27.358Z,0.00
2018-07-31T00:47:27.367Z,0.00
2018-07-31T00:48:27.335Z,0.00
2018-07-31T00:49:27.325Z,0.00
2018-07-31T00:50:27.310Z,0.00
2018-07-31T00:51:27.302Z,0.00
2018-07-31T00:52:27.310Z,0.00
2018-07-31T00:53:27.278Z,0.00
2018-07-31T00:54:27.269Z,0.00
2018-07-31T00:55:27.250Z,0.00
2018-07-31T00:56:27.248Z,0.00
2018-07-31T00:57:27.270Z,0.00
2018-07-31T00:58:27.216Z,0.00
2018-07-31T00:59:27.213Z,0.00
2018-07-31T01:00:27.196Z,0.00
2018-07-31T01:01:27.190Z,0.00
2018-07-31T01:02:27.178Z,0.00
2018-07-31T01:03:27.185Z,0.00
2018-07-31T01:04:27.158Z,0.00
2018-07-31T01:05:27.136Z,0.00
2018-07-31T01:06:27.132Z,0.00
2018-07-31T01:07:27.140Z,0.00
2018-07-31T01:08:27.107Z,0.00
2018-07-31T01:09:27.100Z,0.00
2018-07-31T01:10:27.078Z,0.00
2018-07-31T01:11:27.075Z,0.00
2018-07-31T01:12:27.081Z,0.00
2018-07-31T01:13:27.052Z,0.00
2018-07-31T01:14:27.038Z,0.00
2018-07-31T01:15:27.028Z,0.00
2018-07-31T01:16:27.013Z,0.00
2018-07-31T01:17:27.027Z,0.00
2018-07-31T01:18:26.988Z,0.00
2018-07-31T01:19:26.982Z,0.00
2018-07-31T01:20:26.964Z,0.00
2018-07-31T01:21:26.960Z,0.00
2018-07-31T01:22:26.976Z,0.00
2018-07-31T01:23:26.935Z,0.00
2018-07-31T01:24:26.919Z,0.00
2018-07-31T01:25:26.915Z,0.00
2018-07-31T01:26:26.900Z,0.00
2018-07-31T01:27:26.886Z,0.00
2018-07-31T01:28:26.906Z,0.00
2018-07-31T01:29:26.864Z,0.00
2018-07-31T01:30:26.844Z,0.00
2018-07-31T01:31:26.849Z,0.00
2018-07-31T01:32:26.822Z,0.00
2018-07-31T01:33:26.824Z,0.00
2018-07-31T01:34:26.840Z,0.00
2018-07-31T01:35:26.788Z,0.00
2018-07-31T01:36:26.779Z,0.00
2018-07-31T01:37:26.771Z,0.00
2018-07-31T01:38:26.753Z,0.00
2018-07-31T01:39:26.750Z,0.00
2018-07-31T01:40:26.760Z,0.00
2018-07-31T01:41:26.720Z,0.00
2018-07-31T01:42:26.706Z,0.00
2018-07-31T01:43:26.706Z,0.00
2018-07-31T01:44:26.688Z,0.00
2018-07-31T01:45:26.703Z,0.00
2018-07-31T01:46:26.668Z,0.00
2018-07-31T01:47:26.647Z,0.00
2018-07-31T01:48:26.641Z,0.00
2018-07-31T01:49:26.630Z,0.00
2018-07-31T01:50:26.617Z,0.00
2018-07-31T01:51:26.624Z,0.00
2018-07-31T01:52:26.601Z,0.00
2018-07-31T01:53:26.578Z,0.00
2018-07-31T01:54:26.571Z,0.00
2018-07-31T01:55:26.557Z,0.00
2018-07-31T01:56:26.566Z,0.00
2018-07-31T01:57:26.533Z,0.00
2018-07-31T01:58:26.525Z,0.00
2018-07-31T01:59:26.511Z,0.00
2018-07-31T02:00:26.498Z,0.00
2018-07-31T02:01:26.516Z,0.00
2018-07-31T02:02:26.474Z,0.00
2018-07-31T02:03:26.466Z,0.00
2018-07-31T02:04:26.457Z,0.00
2018-07-31T02:05:26.437Z,0.00
2018-07-31T02:06:26.455Z,0.00
2018-07-31T02:07:26.420Z,0.00
2018-07-31T02:08:26.413Z,0.00
2018-07-31T02:09:26.390Z,0.00
2018-07-31T02:10:26.384Z,0.00
2018-07-31T02:11:26.399Z,0.00
2018-07-31T02:12:26.355Z,0.00
2018-07-31T02:13:26.357Z,0.00
2018-07-31T02:14:26.334Z,0.00
2018-07-31T02:15:26.329Z,0.00
2018-07-31T02:16:26.336Z,0.00
2018-07-31T02:17:26.312Z,0.00
2018-07-31T02:18:26.290Z,0.00
2018-07-31T02:19:26.275Z,0.00
2018-07-31T02:20:26.265Z,0.00
2018-07-31T02:21:26.283Z,0.00
2018-07-31T02:22:26.240Z,0.00
2018-07-31T02:23:26.234Z,0.00
2018-07-31T02:24:26.224Z,0.00
2018-07-31T02:25:26.208Z,0.00
2018-07-31T02:26:26.225Z,0.00
2018-07-31T02:27:26.181Z,0.00
2018-07-31T02:28:26.256Z,0.00
2018-07-31T02:29:26.166Z,0.00
2018-07-31T02:30:26.149Z,0.00
2018-07-31T02:31:26.164Z,0.00
2018-07-31T02:32:26.126Z,0.00
2018-07-31T02:33:26.112Z,0.00
2018-07-31T02:34:26.102Z,0.00
2018-07-31T02:35:26.095Z,0.00
2018-07-31T02:36:26.100Z,0.00
2018-07-31T02:37:26.080Z,0.00
2018-07-31T02:38:26.063Z,0.00
2018-07-31T02:39:26.044Z,0.00
2018-07-31T02:40:26.041Z,0.00
2018-07-31T02:41:26.042Z,0.00
2018-07-31T02:42:26.007Z,0.00
2018-07-31T02:43:26.005Z,0.00
2018-07-31T02:44:25.990Z,0.00
2018-07-31T02:45:25.982Z,0.00
2018-07-31T02:46:25.995Z,0.00
2018-07-31T02:47:25.953Z,0.00
2018-07-31T02:48:25.938Z,0.00
2018-07-31T02:49:25.943Z,0.00
2018-07-31T02:50:25.923Z,0.00
2018-07-31T02:51:25.927Z,0.00
2018-07-31T02:52:25.902Z,0.00
2018-07-31T02:53:25.886Z,0.00
2018-07-31T02:54:25.871Z,0.00
2018-07-31T02:55:25.866Z,0.00
2018-07-31T02:56:25.867Z,0.00
2018-07-31T02:57:25.845Z,0.00
2018-07-31T02:58:25.833Z,0.00
2018-07-31T02:59:25.812Z,0.00
2018-07-31T03:00:25.830Z,0.00
2018-07-31T03:01:25.787Z,0.00
2018-07-31T03:02:25.779Z,0.00
2018-07-31T03:03:25.771Z,0.00
2018-07-31T03:04:25.760Z,0.00
2018-07-31T03:05:25.774Z,0.00
2018-07-31T03:06:25.732Z,0.00
2018-07-31T03:07:25.722Z,0.00
2018-07-31T03:08:25.705Z,0.00
2018-07-31T03:09:25.701Z,0.00
2018-07-31T03:10:25.691Z,0.00
2018-07-31T03:11:25.691Z,0.00
2018-07-31T03:12:25.663Z,4.00
2018-07-31T03:13:25.652Z,4.00
2018-07-31T03:14:25.640Z,0.00
2018-07-31T03:15:25.656Z,0.00
2018-07-31T03:16:25.617Z,4.00
2018-07-31T03:17:25.607Z,4.00
2018-07-31T03:18:25.596Z,4.00
2018-07-31T03:19:25.579Z,4.00
2018-07-31T03:20:25.598Z,4.00
2018-07-31T03:21:25.556Z,4.00
2018-07-31T03:22:25.545Z,8.00
2018-07-31T03:23:25.531Z,8.00
2018-07-31T03:24:25.522Z,8.00
2018-07-31T03:25:25.512Z,12.00
2018-07-31T03:26:25.517Z,12.00
2018-07-31T03:27:25.493Z,12.00
2018-07-31T03:28:25.474Z,16.00
2018-07-31T03:29:25.512Z,16.00
2018-07-31T03:30:25.461Z,24.00
2018-07-31T03:31:25.468Z,24.00
2018-07-31T03:32:25.434Z,28.00
2018-07-31T03:33:25.413Z,32.00
2018-07-31T03:34:25.408Z,40.00
2018-07-31T03:35:25.388Z,40.00
2018-07-31T03:36:25.380Z,48.00
2018-07-31T03:37:25.392Z,56.00
2018-07-31T03:38:25.356Z,60.00
2018-07-31T03:39:25.346Z,68.00
2018-07-31T03:40:25.331Z,76.00
2018-07-31T03:41:25.327Z,84.00
2018-07-31T03:42:25.339Z,92.00
2018-07-31T03:43:25.301Z,108.00
2018-07-31T03:44:25.287Z,116.00
2018-07-31T03:45:25.279Z,128.00
2018-07-31T03:46:25.267Z,144.00
2018-07-31T03:47:25.252Z,156.00
2018-07-31T03:48:25.266Z,168.00
2018-07-31T03:49:25.231Z,184.00
2018-07-31T03:50:25.215Z,200.00
2018-07-31T03:51:25.212Z,220.00
2018-07-31T03:52:25.193Z,236.00
2018-07-31T03:53:25.206Z,256.00
2018-07-31T03:54:25.176Z,276.00
2018-07-31T03:55:25.165Z,304.00
2018-07-31T03:56:25.169Z,328.00
2018-07-31T03:57:25.139Z,360.00
2018-07-31T03:58:25.155Z,392.00
2018-07-31T03:59:25.114Z,424.00
2018-07-31T04:00:25.097Z,464.00
2018-07-31T04:01:25.093Z,512.00
2018-07-31T04:02:25.078Z,572.00
2018-07-31T04:03:25.068Z,644.00
2018-07-31T04:04:25.093Z,720.00
2018-07-31T04:05:25.097Z,760.00
2018-07-31T04:06:25.035Z,768.00
2018-07-31T04:07:25.015Z,768.00
2018-07-31T04:08:25.014Z,760.00
2018-07-31T04:09:24.997Z,768.00
2018-07-31T04:10:25.015Z,792.00
2018-07-31T04:11:24.972Z,816.00
2018-07-31T04:12:24.962Z,844.00
2018-07-31T04:13:24.946Z,876.00
2018-07-31T04:14:24.942Z,904.00
2018-07-31T04:15:24.927Z,936.00
2018-07-31T04:16:24.935Z,968.00
2018-07-31T04:17:24.904Z,1004.00
2018-07-31T04:18:24.892Z,1016.00
2018-07-31T04:19:24.877Z,1028.00
2018-07-31T04:20:24.868Z,1056.00
2018-07-31T04:21:24.881Z,1092.00
2018-07-31T04:22:24.844Z,1132.00
2018-07-31T04:23:24.854Z,1168.00
2018-07-31T04:24:24.842Z,1204.00
2018-07-31T04:25:24.813Z,1244.00
2018-07-31T04:26:24.827Z,1288.00
2018-07-31T04:27:24.781Z,1332.00
2018-07-31T04:28:24.778Z,1372.00
2018-07-31T04:29:24.759Z,1396.00
2018-07-31T04:30:24.758Z,1416.00
2018-07-31T04:31:24.736Z,1444.00
2018-07-31T04:32:24.760Z,1468.00
2018-07-31T04:33:24.724Z,1508.00
2018-07-31T04:34:24.702Z,1556.00
2018-07-31T04:35:24.695Z,1592.00
2018-07-31T04:36:24.686Z,1608.00
2018-07-31T04:37:24.665Z,1640.00
2018-07-31T04:38:24.685Z,1696.00
2018-07-31T04:39:24.642Z,1772.00
2018-07-31T04:40:24.640Z,1852.00
2018-07-31T04:41:24.631Z,1932.00
2018-07-31T04:42:24.661Z,2012.00
2018-07-31T04:43:24.628Z,2116.00
2018-07-31T04:44:24.593Z,2248.00
2018-07-31T04:45:24.576Z,2380.00
2018-07-31T04:46:24.564Z,2520.00
2018-07-31T04:47:24.560Z,2708.00
2018-07-31T04:48:24.563Z,2860.00
2018-07-31T04:49:24.538Z,2996.00
2018-07-31T04:50:24.571Z,3124.00
2018-07-31T04:51:24.506Z,3208.00
2018-07-31T04:52:24.497Z,3296.00
2018-07-31T04:53:24.517Z,3388.00
2018-07-31T04:54:24.472Z,3436.00
2018-07-31T04:55:24.481Z,3452.00
2018-07-31T04:56:24.447Z,3520.00
2018-07-31T04:57:24.445Z,3628.00
2018-07-31T04:58:24.444Z,3712.00
2018-07-31T04:59:24.440Z,3784.00
2018-07-31T05:00:24.417Z,3840.00
2018-07-31T05:01:24.388Z,3892.00
2018-07-31T05:02:24.374Z,3940.00
2018-07-31T05:03:24.376Z,3996.00
2018-07-31T05:04:24.378Z,4008.00
2018-07-31T05:05:24.392Z,4008.00
2018-07-31T05:06:24.362Z,4004.00
2018-07-31T05:07:24.316Z,3984.00
2018-07-31T05:08:24.316Z,3924.00
2018-07-31T05:09:24.299Z,3860.00
2018-07-31T05:10:24.309Z,3840.00
2018-07-31T05:11:24.279Z,3764.00
2018-07-31T05:12:24.262Z,3612.00
2018-07-31T05:13:24.254Z,3564.00
2018-07-31T05:14:24.240Z,3620.00
2018-07-31T05:15:24.260Z,3708.00
2018-07-31T05:16:24.217Z,3196.00
2018-07-31T05:17:24.216Z,3736.00
2018-07-31T05:18:24.256Z,3736.00
2018-07-31T05:19:24.177Z,3780.00
2018-07-31T05:20:24.175Z,3816.00
2018-07-31T05:21:24.187Z,3816.00
2018-07-31T05:22:24.145Z,3796.00
2018-07-31T05:23:24.150Z,3776.00
2018-07-31T05:24:24.120Z,3764.00
2018-07-31T05:25:24.118Z,3716.00
2018-07-31T05:26:24.105Z,3724.00
2018-07-31T05:27:24.123Z,3692.00
2018-07-31T05:28:24.081Z,3636.00
2018-07-31T05:29:24.073Z,3660.00
2018-07-31T05:30:24.055Z,3676.00
2018-07-31T05:31:24.039Z,3320.00
2018-07-31T05:32:24.087Z,3716.00
2018-07-31T05:33:24.017Z,3776.00
2018-07-31T05:34:24.008Z,3824.00
2018-07-31T05:35:24.004Z,3884.00
2018-07-31T05:36:23.985Z,4028.00
2018-07-31T05:37:23.982Z,4164.00
2018-07-31T05:38:23.991Z,4236.00
2018-07-31T05:39:23.949Z,4360.00
2018-07-31T05:40:23.951Z,4500.00
2018-07-31T05:41:23.927Z,4656.00
2018-07-31T05:42:23.924Z,4884.00
2018-07-31T05:43:23.934Z,4896.00
2018-07-31T05:44:23.900Z,4728.00
2018-07-31T05:45:23.887Z,4668.00
2018-07-31T05:46:23.875Z,4860.00
2018-07-31T05:47:23.869Z,4872.00
2018-07-31T05:48:23.852Z,4560.00
2018-07-31T05:49:23.870Z,4564.00
2018-07-31T05:50:23.833Z,4640.00
2018-07-31T05:51:23.818Z,4880.00
2018-07-31T05:52:23.810Z,5088.00
2018-07-31T05:53:23.789Z,5016.00
2018-07-31T05:54:23.779Z,4900.00
2018-07-31T05:55:23.799Z,4888.00
2018-07-31T05:56:23.760Z,4724.00
2018-07-31T05:57:23.763Z,4876.00
2018-07-31T05:58:23.770Z,5104.00
2018-07-31T05:59:23.771Z,5252.00
2018-07-31T06:00:23.865Z,5396.00
2018-07-31T06:01:23.705Z,5432.00
2018-07-31T06:02:23.696Z,5640.00
2018-07-31T06:03:23.680Z,5676.00
2018-07-31T06:04:23.728Z,5428.00
2018-07-31T06:05:23.677Z,5956.00
2018-07-31T06:06:23.709Z,5992.00
2018-07-31T06:07:23.641Z,5896.00
2018-07-31T06:08:23.627Z,5744.00
2018-07-31T06:09:23.663Z,5512.00
2018-07-31T06:10:23.640Z,5232.00
2018-07-31T06:11:23.671Z,5896.00
2018-07-31T06:12:23.608Z,5952.00
2018-07-31T06:13:23.569Z,5604.00
2018-07-31T06:14:23.554Z,6168.00
2018-07-31T06:15:23.600Z,6692.00
2018-07-31T06:16:23.563Z,6884.00
2018-07-31T06:17:23.524Z,7108.00
2018-07-31T06:18:23.511Z,7208.00
2018-07-31T06:19:23.577Z,7644.00
2018-07-31T06:20:23.547Z,8100.00
2018-07-31T06:21:23.473Z,8568.00
2018-07-31T06:22:23.484Z,9116.00
2018-07-31T06:23:23.459Z,9856.00
2018-07-31T06:24:23.436Z,10608.00
2018-07-31T06:25:23.442Z,10900.00
2018-07-31T06:26:23.429Z,12028.00
2018-07-31T06:27:23.427Z,21312.00
2018-07-31T06:28:23.403Z,39392.00
2018-07-31T06:29:23.451Z,43872.00
2018-07-31T06:30:23.414Z,43840.00
2018-07-31T06:31:23.414Z,47520.00
2018-07-31T06:32:23.472Z,42656.00
2018-07-31T06:33:23.333Z,41312.00
2018-07-31T06:34:23.330Z,41024.00
2018-07-31T06:35:23.321Z,43424.00
2018-07-31T06:36:23.342Z,38304.00
2018-07-31T06:37:23.348Z,31392.00
2018-07-31T06:38:23.308Z,39808.00
2018-07-31T06:39:23.265Z,44992.00
2018-07-31T06:40:23.281Z,48352.00
2018-07-31T06:41:23.248Z,47808.00
2018-07-31T06:42:23.232Z,49536.00
2018-07-31T06:43:23.259Z,47040.00
2018-07-31T06:44:23.215Z,50048.00
2018-07-31T06:45:23.201Z,50016.00
2018-07-31T06:46:23.194Z,35136.00
2018-07-31T06:47:23.180Z,31584.00
2018-07-31T06:48:23.201Z,47392.00
2018-07-31T06:49:23.167Z,48288.00
2018-07-31T06:50:23.148Z,36416.00
2018-07-31T06:51:23.136Z,22080.00
2018-07-31T06:52:23.128Z,17952.00
2018-07-31T06:53:23.107Z,22080.00
2018-07-31T06:54:23.128Z,27840.00
2018-07-31T06:55:23.089Z,21696.00
2018-07-31T06:56:23.077Z,29568.00
2018-07-31T06:57:23.073Z,17664.00
2018-07-31T06:58:23.054Z,14276.00
2018-07-31T06:59:23.079Z,13968.00
2018-07-31T07:00:23.041Z,14484.00
2018-07-31T07:01:23.020Z,15528.00
2018-07-31T07:02:23.016Z,14460.00
2018-07-31T07:03:22.998Z,13172.00
2018-07-31T07:04:22.987Z,13344.00
2018-07-31T07:05:23.006Z,13904.00
2018-07-31T07:06:22.963Z,13704.00
2018-07-31T07:07:22.954Z,13588.00
2018-07-31T07:08:22.940Z,14232.00
2018-07-31T07:09:23.003Z,14732.00
2018-07-31T07:10:22.921Z,15712.00
2018-07-31T07:11:22.937Z,15072.00
2018-07-31T07:12:22.897Z,17728.00
2018-07-31T07:13:22.888Z,24096.00
2018-07-31T07:14:22.879Z,30656.00
2018-07-31T07:15:22.876Z,14136.00
2018-07-31T07:16:22.889Z,13272.00
2018-07-31T07:17:22.846Z,13868.00
2018-07-31T07:18:22.850Z,14792.00
2018-07-31T07:19:22.820Z,18496.00
2018-07-31T07:20:22.805Z,16844.00
2018-07-31T07:21:22.798Z,16944.00
2018-07-31T07:22:22.809Z,21248.00
2018-07-31T07:23:22.773Z,19104.00
2018-07-31T07:24:22.766Z,29248.00
2018-07-31T07:25:22.757Z,30080.00
2018-07-31T07:26:22.745Z,33248.00
2018-07-31T07:27:22.763Z,30688.00
2018-07-31T07:28:22.722Z,35520.00
2018-07-31T07:29:22.708Z,47296.00
2018-07-31T07:30:22.699Z,24384.00
2018-07-31T07:31:22.689Z,31776.00
2018-07-31T07:32:22.675Z,28256.00
2018-07-31T07:33:22.691Z,37312.00
2018-07-31T07:34:22.658Z,35680.00
2018-07-31T07:35:22.642Z,45280.00
2018-07-31T07:36:22.630Z,48576.00
2018-07-31T07:37:22.616Z,48416.00
2018-07-31T07:38:22.640Z,51360.00
2018-07-31T07:39:22.603Z,47712.00
2018-07-31T07:40:22.582Z,37408.00
2018-07-31T07:41:22.580Z,42304.00
2018-07-31T07:42:22.565Z,41344.00
2018-07-31T07:43:22.554Z,46112.00
2018-07-31T07:44:22.563Z,41984.00
2018-07-31T07:45:22.532Z,47840.00
2018-07-31T07:46:22.523Z,57312.00
2018-07-31T07:47:22.508Z,55232.00
2018-07-31T07:48:22.521Z,48960.00
2018-07-31T07:49:22.522Z,41504.00
2018-07-31T07:50:22.472Z,44288.00
2018-07-31T07:51:22.470Z,36800.00
2018-07-31T07:52:22.459Z,37216.00
2018-07-31T07:53:22.450Z,27104.00
2018-07-31T07:54:22.548Z,33696.00
2018-07-31T07:55:22.419Z,37472.00
2018-07-31T07:56:22.416Z,21280.00
2018-07-31T07:57:22.396Z,45472.00
2018-07-31T07:58:22.387Z,47872.00
2018-07-31T07:59:22.384Z,52992.00
2018-07-31T08:00:22.394Z,31264.00
2018-07-31T08:01:22.357Z,40608.00
2018-07-31T08:02:22.351Z,34912.00
2018-07-31T08:03:22.333Z,36672.00
2018-07-31T08:04:22.325Z,47424.00
2018-07-31T08:05:22.340Z,58208.00
2018-07-31T08:06:22.309Z,58048.00
2018-07-31T08:07:22.298Z,58272.00
2018-07-31T08:08:22.282Z,50496.00
2018-07-31T08:09:22.276Z,54496.00
2018-07-31T08:10:22.310Z,58304.00
2018-07-31T08:11:22.257Z,56704.00
2018-07-31T08:12:22.244Z,56608.00
2018-07-31T08:13:22.236Z,58432.00
2018-07-31T08:14:22.218Z,58784.00
2018-07-31T08:15:22.213Z,33600.00
2018-07-31T08:16:22.229Z,38272.00
2018-07-31T08:17:22.190Z,39168.00
2018-07-31T08:18:22.181Z,45248.00
2018-07-31T08:19:22.186Z,48896.00
2018-07-31T08:20:22.178Z,31712.00
2018-07-31T08:21:22.183Z,18880.00
2018-07-31T08:22:22.131Z,45120.00
2018-07-31T08:23:22.136Z,44512.00
2018-07-31T08:24:22.114Z,55328.00
2018-07-31T08:25:22.111Z,53152.00
2018-07-31T08:26:22.094Z,51840.00
2018-07-31T08:27:22.114Z,51104.00
2018-07-31T08:28:22.080Z,49120.00
2018-07-31T08:29:22.067Z,49792.00
2018-07-31T08:30:22.055Z,49984.00
2018-07-31T08:31:22.044Z,40704.00
2018-07-31T08:32:22.037Z,39136.00
2018-07-31T08:33:22.133Z,35200.00
2018-07-31T08:34:22.058Z,48928.00
2018-07-31T08:35:22.009Z,48064.00
2018-07-31T08:36:22.878Z,48704.00
2018-07-31T08:37:22.001Z,49760.00
2018-07-31T08:38:22.060Z,51520.00
2018-07-31T08:39:21.966Z,51808.00
2018-07-31T08:40:22.002Z,49664.00
2018-07-31T08:41:21.952Z,37696.00
2018-07-31T08:42:21.937Z,51232.00
2018-07-31T08:43:21.953Z,52480.00
2018-07-31T08:44:21.916Z,51616.00
2018-07-31T08:45:21.905Z,42592.00
2018-07-31T08:46:21.898Z,49504.00
2018-07-31T08:47:21.890Z,49632.00
2018-07-31T08:48:21.884Z,48256.00
2018-07-31T08:49:21.885Z,49824.00
2018-07-31T08:50:21.859Z,43296.00
2018-07-31T08:51:21.846Z,36416.00
2018-07-31T08:52:21.834Z,35680.00
2018-07-31T08:53:21.832Z,32608.00
2018-07-31T08:54:21.844Z,38208.00
2018-07-31T08:55:21.812Z,40096.00
2018-07-31T08:56:21.795Z,39648.00
2018-07-31T08:57:21.798Z,40608.00
2018-07-31T08:58:21.784Z,45056.00
2018-07-31T08:59:21.767Z,36032.00
2018-07-31T09:00:21.799Z,32896.00
2018-07-31T09:01:21.748Z,20384.00
2018-07-31T09:02:21.747Z,15240.00
2018-07-31T09:03:21.728Z,16204.00
2018-07-31T09:04:21.721Z,17984.00
2018-07-31T09:05:21.709Z,24576.00
2018-07-31T09:06:21.720Z,29504.00
2018-07-31T09:07:21.694Z,42848.00
2018-07-31T09:08:21.745Z,27552.00
2018-07-31T09:09:21.671Z,42880.00
2018-07-31T09:10:21.658Z,93632.00
2018-07-31T09:11:21.684Z,89472.00
2018-07-31T09:12:21.642Z,98432.00
2018-07-31T09:13:21.626Z,95456.00
2018-07-31T09:14:21.621Z,73248.00
2018-07-31T09:15:21.607Z,44160.00
2018-07-31T09:16:21.593Z,24800.00
2018-07-31T09:17:21.610Z,32512.00
2018-07-31T09:18:21.575Z,46784.00
2018-07-31T09:19:21.571Z,25344.00
2018-07-31T09:20:21.555Z,23712.00
2018-07-31T09:21:21.544Z,22784.00
2018-07-31T09:22:21.572Z,23904.00
2018-07-31T09:23:21.724Z,21696.00
2018-07-31T09:24:21.576Z,21280.00
2018-07-31T09:25:21.507Z,22688.00
2018-07-31T09:26:21.495Z,29248.00
2018-07-31T09:27:21.483Z,32128.00
2018-07-31T09:28:21.501Z,42112.00
2018-07-31T09:29:21.468Z,34336.00
2018-07-31T09:30:21.501Z,60032.00
2018-07-31T09:31:21.445Z,56448.00
2018-07-31T09:32:21.437Z,92000.00
2018-07-31T09:33:21.441Z,98656.00
2018-07-31T09:34:21.407Z,97376.00
2018-07-31T09:35:21.406Z,103872.00
2018-07-31T09:36:21.388Z,92800.00
2018-07-31T09:37:21.387Z,104832.00
2018-07-31T09:38:21.415Z,105216.00
2018-07-31T09:39:21.358Z,32416.00
2018-07-31T09:40:21.358Z,106688.00
2018-07-31T09:41:21.339Z,77408.00
2018-07-31T09:42:21.332Z,108448.00
2018-07-31T09:43:21.327Z,94912.00
2018-07-31T09:44:21.351Z,89632.00
2018-07-31T09:45:21.311Z,83424.00
2018-07-31T09:46:21.298Z,115168.00
2018-07-31T09:47:21.285Z,109376.00
2018-07-31T09:48:21.279Z,102432.00
2018-07-31T09:49:21.267Z,34944.00
2018-07-31T09:50:21.281Z,56512.00
2018-07-31T09:51:21.251Z,56288.00
2018-07-31T09:52:21.239Z,88928.00
2018-07-31T09:53:21.233Z,88128.00
2018-07-31T09:54:21.224Z,69216.00
2018-07-31T09:55:21.243Z,49120.00
2018-07-31T09:56:21.206Z,77376.00
2018-07-31T09:57:21.195Z,83712.00
2018-07-31T09:58:21.183Z,118336.00
2018-07-31T09:59:21.182Z,118048.00
2018-07-31T10:00:21.165Z,94400.00
2018-07-31T10:01:21.196Z,110656.00
2018-07-31T10:02:21.154Z,82400.00
2018-07-31T10:03:21.137Z,104128.00
2018-07-31T10:04:21.140Z,71872.00
2018-07-31T10:05:21.128Z,85632.00
2018-07-31T10:06:21.117Z,98016.00
2018-07-31T10:07:21.131Z,93440.00
2018-07-31T10:08:21.093Z,94304.00
2018-07-31T10:09:21.094Z,79936.00
2018-07-31T10:10:21.083Z,49696.00
2018-07-31T10:11:21.080Z,22752.00
2018-07-31T10:12:21.094Z,42656.00
2018-07-31T10:13:21.046Z,87776.00
2018-07-31T10:14:21.048Z,52928.00
2018-07-31T10:15:21.035Z,48864.00
2018-07-31T10:16:21.028Z,70976.00
2018-07-31T10:17:21.007Z,103488.00
2018-07-31T10:18:21.057Z,93312.00
2018-07-31T10:19:20.996Z,102016.00
2018-07-31T10:20:20.978Z,80512.00
2018-07-31T10:21:20.971Z,93152.00
2018-07-31T10:22:20.969Z,80864.00
2018-07-31T10:23:20.982Z,52000.00
2018-07-31T10:24:20.943Z,53248.00
2018-07-31T10:25:20.936Z,32896.00
2018-07-31T10:26:20.927Z,31040.00
2018-07-31T10:27:20.920Z,56256.00
2018-07-31T10:28:20.905Z,82368.00
2018-07-31T10:29:20.924Z,75136.00
2018-07-31T10:30:20.885Z,68896.00
2018-07-31T10:31:20.871Z,41216.00
2018-07-31T10:32:20.864Z,54816.00
2018-07-31T10:33:20.850Z,64032.00
2018-07-31T10:34:20.866Z,63680.00
2018-07-31T10:35:20.858Z,107744.00
2018-07-31T10:36:20.823Z,69056.00
2018-07-31T10:37:20.810Z,79456.00
2018-07-31T10:38:20.800Z,32832.00
2018-07-31T10:39:20.801Z,53824.00
2018-07-31T10:40:20.808Z,86368.00
2018-07-31T10:41:20.771Z,97312.00
2018-07-31T10:42:20.767Z,89088.00
2018-07-31T10:43:20.750Z,90400.00
2018-07-31T10:44:20.745Z,76960.00
2018-07-31T10:45:20.766Z,58592.00
2018-07-31T10:46:20.728Z,97024.00
2018-07-31T10:47:20.714Z,96736.00
2018-07-31T10:48:20.707Z,96608.00
2018-07-31T10:49:20.687Z,97792.00
2018-07-31T10:50:20.684Z,97344.00
2018-07-31T10:51:20.708Z,97856.00
2018-07-31T10:52:20.663Z,102080.00
2018-07-31T10:53:20.658Z,98112.00
2018-07-31T10:54:20.648Z,100256.00
2018-07-31T10:55:20.630Z,44064.00
2018-07-31T10:56:20.623Z,96448.00
2018-07-31T10:57:20.639Z,22144.00
2018-07-31T10:58:20.641Z,19840.00
2018-07-31T10:59:20.638Z,53152.00
2018-07-31T11:00:20.646Z,27808.00
2018-07-31T11:01:20.572Z,97536.00
2018-07-31T11:02:20.589Z,29184.00
2018-07-31T11:03:20.560Z,37664.00
2018-07-31T11:04:20.566Z,21952.00
2018-07-31T11:05:20.540Z,100256.00
2018-07-31T11:06:20.586Z,106688.00
2018-07-31T11:07:20.542Z,106592.00
2018-07-31T11:08:20.505Z,102496.00
2018-07-31T11:09:20.491Z,102944.00
2018-07-31T11:10:20.513Z,105888.00
2018-07-31T11:11:20.473Z,101344.00
2018-07-31T11:12:20.467Z,96096.00
2018-07-31T11:13:20.547Z,99936.00
2018-07-31T11:14:20.444Z,98944.00
2018-07-31T11:15:20.436Z,96672.00
2018-07-31T11:16:20.424Z,96064.00
2018-07-31T11:17:20.417Z,105536.00
2018-07-31T11:18:20.401Z,100512.00
2018-07-31T11:19:20.427Z,102176.00
2018-07-31T11:20:20.381Z,21472.00
2018-07-31T11:21:20.452Z,19968.00
2018-07-31T11:22:20.362Z,17052.00
2018-07-31T11:23:20.349Z,15000.00
2018-07-31T11:24:20.344Z,13532.00
2018-07-31T11:25:20.352Z,15152.00
2018-07-31T11:26:20.319Z,17176.00
2018-07-31T11:27:20.348Z,20224.00
2018-07-31T11:28:20.297Z,18496.00
2018-07-31T11:29:20.293Z,100960.00
2018-07-31T11:30:20.314Z,58624.00
2018-07-31T11:31:20.265Z,100512.00
2018-07-31T11:32:20.260Z,84480.00
2018-07-31T11:33:20.245Z,97568.00
2018-07-31T11:34:20.239Z,105536.00
2018-07-31T11:35:20.224Z,83680.00
2018-07-31T11:36:20.243Z,29568.00
2018-07-31T11:37:20.211Z,16616.00
2018-07-31T11:38:20.193Z,36848.00
2018-07-31T11:39:20.185Z,15508.00
2018-07-31T11:40:20.178Z,15144.00
2018-07-31T11:41:20.170Z,15144.00
2018-07-31T11:42:20.171Z,15356.00
2018-07-31T11:43:20.147Z,15628.00
2018-07-31T11:44:20.150Z,16072.00
2018-07-31T11:45:20.119Z,17220.00
2018-07-31T11:46:20.120Z,16608.00
2018-07-31T11:47:20.119Z,16152.00
2018-07-31T11:48:20.092Z,16548.00
2018-07-31T11:49:20.081Z,16792.00
2018-07-31T11:50:20.066Z,17708.00
2018-07-31T11:51:20.053Z,18484.00
2018-07-31T11:52:20.104Z,21536.00
2018-07-31T11:53:20.031Z,20256.00
2018-07-31T11:54:20.021Z,20800.00
2018-07-31T11:55:20.019Z,21696.00
2018-07-31T11:56:19.999Z,19872.00
2018-07-31T11:57:19.992Z,15456.00
2018-07-31T11:58:20.010Z,14556.00
2018-07-31T11:59:19.967Z,13508.00
2018-07-31T12:00:19.960Z,10776.00
2018-07-31T12:01:19.953Z,15080.00
2018-07-31T12:02:19.936Z,14304.00
2018-07-31T12:03:19.961Z,14640.00
2018-07-31T12:04:20.017Z,14084.00
2018-07-31T12:05:19.907Z,14260.00
2018-07-31T12:06:19.901Z,15108.00
2018-07-31T12:07:19.890Z,17104.00
2018-07-31T12:08:19.902Z,15228.00
2018-07-31T12:09:19.869Z,13476.00
2018-07-31T12:10:19.859Z,12844.00
2018-07-31T12:11:19.840Z,12804.00
2018-07-31T12:12:19.837Z,15364.00
2018-07-31T12:13:19.823Z,13340.00
2018-07-31T12:14:19.838Z,12652.00